createdAt,value
2019-01-13T00:01:31.740Z,43.73
2019-01-13T00:03:59.172Z,42.73
2019-01-13T00:06:26.746Z,44.03
2019-01-13T00:08:54.394Z,57.50
2019-01-13T00:11:22.022Z,47.17
2019-01-13T00:13:49.696Z,51.43
2019-01-13T00:16:17.255Z,45.43
2019-01-13T00:18:44.744Z,50.63
2019-01-13T00:21:12.499Z,39.33
2019-01-13T00:23:40.142Z,44.37
2019-01-13T00:26:07.633Z,43.57
2019-01-13T00:28:35.135Z,35.80
2019-01-13T00:31:03.473Z,32.93
2019-01-13T00:33:30.993Z,36.60
2019-01-13T00:35:58.475Z,36.07
2019-01-13T00:38:26.006Z,36.77
2019-01-13T00:40:53.547Z,35.63
2019-01-13T00:43:21.072Z,36.83
2019-01-13T00:45:48.747Z,36.80
2019-01-13T00:48:16.263Z,35.97
2019-01-13T00:50:43.834Z,38.23
2019-01-13T00:53:11.293Z,36.37
2019-01-13T00:55:38.827Z,41.83
2019-01-13T00:58:06.497Z,39.40
2019-01-13T01:00:34.173Z,43.90
2019-01-13T01:03:01.670Z,40.50
2019-01-13T01:05:29.279Z,40.43
2019-01-13T01:07:56.671Z,38.33
2019-01-13T01:10:24.310Z,40.13
2019-01-13T01:12:52.033Z,40.53
2019-01-13T01:15:19.843Z,45.50
2019-01-13T01:17:47.364Z,46.47
2019-01-13T01:20:15.104Z,43.07
2019-01-13T01:22:42.766Z,53.00
2019-01-13T01:25:11.667Z,38.67
2019-01-13T01:27:39.211Z,34.47
2019-01-13T01:30:13.217Z,34.37
2019-01-13T01:32:40.817Z,35.60
2019-01-13T01:35:08.724Z,33.87
2019-01-13T01:37:36.215Z,32.17
2019-01-13T01:40:06.975Z,34.17
2019-01-13T01:42:34.471Z,28.37
2019-01-13T01:45:02.229Z,33.87
2019-01-13T01:47:29.745Z,40.77
2019-01-13T01:49:57.192Z,39.27
2019-01-13T01:52:24.800Z,32.23
2019-01-13T01:54:52.446Z,28.63
2019-01-13T01:57:20.074Z,30.93
2019-01-13T01:59:47.571Z,27.97
2019-01-13T02:02:15.337Z,29.33
2019-01-13T02:04:42.781Z,40.23
2019-01-13T02:07:10.353Z,36.57
2019-01-13T02:09:37.887Z,32.17
2019-01-13T02:12:05.409Z,39.53
2019-01-13T02:14:32.971Z,35.43
2019-01-13T02:17:00.436Z,34.93
2019-01-13T02:19:27.944Z,37.37
2019-01-13T02:21:55.441Z,29.97
2019-01-13T02:24:22.998Z,36.20
2019-01-13T02:26:50.481Z,38.37
2019-01-13T02:29:17.964Z,41.27
2019-01-13T02:31:45.472Z,40.23
2019-01-13T02:34:12.987Z,37.43
2019-01-13T02:36:40.558Z,40.53
2019-01-13T02:39:08.169Z,32.50
2019-01-13T02:41:35.651Z,33.00
2019-01-13T02:44:03.596Z,38.10
2019-01-13T02:46:31.212Z,32.17
2019-01-13T02:48:58.735Z,33.90
2019-01-13T02:51:26.322Z,33.43
2019-01-13T02:53:53.835Z,31.67
2019-01-13T02:56:21.684Z,37.60
2019-01-13T02:58:49.354Z,37.87
2019-01-13T03:01:16.965Z,35.67
2019-01-13T03:03:44.476Z,33.60
2019-01-13T03:06:12.024Z,34.60
2019-01-13T03:08:39.607Z,38.40
2019-01-13T03:11:07.051Z,34.43
2019-01-13T03:13:34.525Z,41.43
2019-01-13T03:16:02.067Z,42.37
2019-01-13T03:18:29.608Z,39.87
2019-01-13T03:20:57.027Z,39.87
2019-01-13T03:23:25.227Z,37.17
2019-01-13T03:25:52.700Z,38.83
2019-01-13T03:28:20.113Z,41.00
2019-01-13T03:30:47.577Z,46.17
2019-01-13T03:33:15.131Z,48.57
2019-01-13T03:35:43.261Z,47.87
2019-01-13T03:38:10.847Z,45.10
2019-01-13T03:40:38.420Z,38.30
2019-01-13T03:43:06.113Z,42.67
2019-01-13T03:45:33.796Z,39.67
2019-01-13T03:48:01.355Z,39.80
2019-01-13T03:50:29.105Z,42.40
2019-01-13T03:52:56.650Z,34.13
2019-01-13T03:55:24.794Z,33.90
2019-01-13T03:57:52.373Z,38.57
2019-01-13T04:00:22.372Z,31.97
2019-01-13T04:02:50.043Z,32.33
2019-01-13T04:05:17.693Z,33.27
2019-01-13T04:07:45.227Z,29.33
2019-01-13T04:10:14.031Z,26.77
2019-01-13T04:12:41.874Z,33.37
2019-01-13T04:15:52.478Z,29.33
2019-01-13T04:18:20.054Z,29.03
2019-01-13T04:20:47.609Z,29.97
2019-01-13T04:23:15.098Z,25.73
2019-01-13T04:25:42.612Z,23.80
2019-01-13T04:28:10.008Z,23.37
2019-01-13T04:30:37.528Z,25.13
2019-01-13T04:33:05.075Z,20.37
2019-01-13T04:35:32.547Z,25.27
2019-01-13T04:38:00.008Z,25.40
2019-01-13T04:40:27.605Z,22.70
2019-01-13T04:42:55.227Z,24.17
2019-01-13T04:45:22.822Z,24.10
2019-01-13T04:47:50.348Z,27.67
2019-01-13T04:50:17.867Z,27.77
2019-01-13T04:52:45.369Z,26.53
2019-01-13T04:55:12.927Z,26.20
2019-01-13T04:57:40.650Z,25.27
2019-01-13T05:00:11.910Z,31.33
2019-01-13T05:02:39.612Z,26.77
2019-01-13T05:05:07.871Z,27.03
2019-01-13T05:07:35.516Z,31.10
2019-01-13T05:10:04.218Z,26.53
2019-01-13T05:12:31.738Z,31.27
2019-01-13T05:14:59.133Z,30.90
2019-01-13T05:17:26.723Z,35.80
2019-01-13T05:19:54.189Z,34.20
2019-01-13T05:22:21.727Z,35.67
2019-01-13T05:24:49.286Z,31.20
2019-01-13T05:27:16.841Z,31.17
2019-01-13T05:29:44.349Z,31.77
2019-01-13T05:32:11.869Z,27.50
2019-01-13T05:34:39.334Z,33.33
2019-01-13T05:37:06.807Z,30.10
2019-01-13T05:39:34.306Z,30.27
2019-01-13T05:42:01.907Z,33.20
2019-01-13T05:44:29.421Z,34.80
2019-01-13T05:46:56.852Z,30.60
2019-01-13T05:49:24.437Z,27.00
2019-01-13T05:51:52.263Z,32.37
2019-01-13T05:54:19.818Z,28.87
2019-01-13T05:56:47.431Z,23.90
2019-01-13T05:59:15.000Z,29.43
2019-01-13T06:01:48.935Z,31.83
2019-01-13T06:04:11.932Z,30.03
2019-01-13T06:06:39.447Z,32.10
2019-01-13T06:09:07.814Z,27.93
2019-01-13T06:11:35.451Z,29.57
2019-01-13T06:14:02.951Z,35.27
2019-01-13T06:16:30.458Z,31.57
2019-01-13T06:18:57.955Z,30.60
2019-01-13T06:21:25.405Z,31.50
2019-01-13T06:23:52.910Z,26.97
2019-01-13T06:26:20.405Z,29.23
2019-01-13T06:28:47.977Z,27.47
2019-01-13T06:31:15.490Z,22.10
2019-01-13T06:33:42.910Z,24.90
2019-01-13T06:36:10.462Z,28.40
2019-01-13T06:38:37.972Z,25.07
2019-01-13T06:41:05.474Z,24.63
2019-01-13T06:43:32.975Z,27.87
2019-01-13T06:46:00.612Z,21.30
2019-01-13T06:48:28.184Z,30.13
2019-01-13T06:50:55.816Z,24.93
2019-01-13T06:53:23.436Z,26.90
2019-01-13T06:55:50.975Z,28.97
2019-01-13T06:58:18.507Z,42.73
2019-01-13T07:00:46.135Z,44.67
2019-01-13T07:03:13.777Z,32.27
2019-01-13T07:05:41.415Z,28.67
2019-01-13T07:08:09.178Z,29.70
2019-01-13T07:10:36.772Z,31.30
2019-01-13T07:13:04.316Z,23.77
2019-01-13T07:15:32.003Z,27.07
2019-01-13T07:17:59.457Z,29.97
2019-01-13T07:20:26.959Z,31.90
2019-01-13T07:22:54.483Z,48.90
2019-01-13T07:25:22.024Z,43.13
2019-01-13T07:27:50.498Z,33.23
2019-01-13T07:30:22.798Z,30.10
2019-01-13T07:32:50.510Z,28.03
2019-01-13T07:35:18.014Z,24.63
2019-01-13T07:37:45.493Z,21.40
2019-01-13T07:40:18.485Z,23.20
2019-01-13T07:42:46.251Z,23.27
2019-01-13T07:45:15.669Z,23.17
2019-01-13T07:47:43.224Z,22.80
2019-01-13T07:50:13.061Z,23.20
2019-01-13T07:52:40.925Z,18.90
2019-01-13T07:55:11.206Z,24.27
2019-01-13T07:57:38.997Z,23.67
2019-01-13T08:00:11.170Z,28.77
2019-01-13T08:02:38.980Z,27.10
2019-01-13T08:05:06.859Z,25.73
2019-01-13T08:07:34.324Z,35.57
2019-01-13T08:10:02.101Z,31.80
2019-01-13T08:12:29.675Z,34.27
2019-01-13T08:14:57.207Z,35.93
2019-01-13T08:17:24.740Z,34.17
2019-01-13T08:19:52.206Z,35.07
2019-01-13T08:22:19.834Z,41.27
2019-01-13T08:24:47.350Z,32.97
2019-01-13T08:27:14.883Z,36.43
2019-01-13T08:29:42.334Z,24.63
2019-01-13T08:32:10.049Z,32.87
2019-01-13T08:34:37.770Z,27.13
2019-01-13T08:37:05.389Z,24.70
2019-01-13T08:39:32.887Z,23.00
2019-01-13T08:42:00.531Z,23.77
2019-01-13T08:44:28.131Z,22.57
2019-01-13T08:46:55.770Z,24.80
2019-01-13T08:49:23.261Z,18.83
2019-01-13T08:51:50.687Z,25.20
2019-01-13T08:54:18.268Z,31.60
2019-01-13T08:56:45.831Z,23.17
2019-01-13T08:59:13.568Z,22.00
2019-01-13T09:01:41.211Z,23.73
2019-01-13T09:04:09.240Z,21.03
2019-01-13T09:06:37.083Z,21.90
2019-01-13T09:09:08.644Z,19.87
2019-01-13T09:11:36.272Z,20.77
2019-01-13T09:14:04.027Z,20.93
2019-01-13T09:16:31.606Z,27.20
2019-01-13T09:18:59.290Z,19.37
2019-01-13T09:21:26.723Z,17.93
2019-01-13T09:23:54.342Z,21.57
2019-01-13T09:26:22.002Z,21.07
2019-01-13T09:28:49.521Z,20.17
2019-01-13T09:31:17.392Z,19.20
2019-01-13T09:33:44.999Z,24.80
2019-01-13T09:36:12.725Z,22.80
2019-01-13T09:38:40.288Z,22.67
2019-01-13T09:41:07.965Z,22.77
2019-01-13T09:43:35.733Z,24.43
2019-01-13T09:46:03.509Z,22.73
2019-01-13T09:48:31.244Z,20.30
2019-01-13T09:50:59.053Z,24.20
2019-01-13T09:53:26.606Z,31.43
2019-01-13T09:55:54.040Z,27.33
2019-01-13T09:58:21.665Z,25.47
2019-01-13T10:00:49.684Z,19.63
2019-01-13T10:03:17.224Z,22.20
2019-01-13T10:05:44.950Z,26.50
2019-01-13T10:08:13.303Z,23.77
2019-01-13T10:10:40.682Z,22.03
2019-01-13T10:13:08.288Z,22.80
2019-01-13T10:15:35.867Z,22.20
2019-01-13T10:18:03.400Z,22.17
2019-01-13T10:20:30.896Z,25.13
2019-01-13T10:22:58.667Z,26.40
2019-01-13T10:25:26.266Z,32.87
2019-01-13T10:27:54.168Z,33.90
2019-01-13T10:30:24.850Z,42.23
2019-01-13T10:32:55.789Z,46.20
2019-01-13T10:35:23.094Z,45.17
2019-01-13T10:37:51.623Z,44.20
2019-01-13T10:40:20.914Z,46.37
2019-01-13T10:42:48.577Z,35.27
2019-01-13T10:45:16.650Z,40.83
2019-01-13T10:47:44.638Z,30.70
2019-01-13T10:50:17.699Z,32.90
2019-01-13T10:52:45.576Z,31.30
2019-01-13T10:55:14.153Z,33.03
2019-01-13T10:57:41.684Z,39.50
2019-01-13T11:00:19.981Z,32.43
2019-01-13T11:02:47.563Z,32.40
2019-01-13T11:05:15.252Z,35.80
2019-01-13T11:07:43.002Z,37.43
2019-01-13T11:10:12.075Z,36.73
2019-01-13T11:12:39.794Z,36.60
2019-01-13T11:15:08.027Z,34.10
2019-01-13T11:17:35.791Z,29.70
2019-01-13T11:20:06.103Z,32.77
2019-01-13T11:22:33.836Z,31.83
2019-01-13T11:25:01.497Z,33.03
2019-01-13T11:27:29.073Z,35.83
2019-01-13T11:29:56.878Z,35.03
2019-01-13T11:32:24.581Z,40.93
2019-01-13T11:34:52.048Z,31.33
2019-01-13T11:37:19.532Z,29.97
2019-01-13T11:39:47.025Z,30.77
2019-01-13T11:42:14.644Z,30.93
2019-01-13T11:44:42.264Z,30.17
2019-01-13T11:47:09.721Z,31.07
2019-01-13T11:49:38.562Z,30.60
2019-01-13T11:52:06.277Z,25.60
2019-01-13T11:54:34.025Z,24.97
2019-01-13T11:57:01.639Z,25.77
2019-01-13T11:59:29.277Z,22.90
2019-01-13T12:01:57.201Z,23.83
2019-01-13T12:04:24.701Z,24.40
2019-01-13T12:06:52.409Z,20.47
2019-01-13T12:09:20.078Z,20.30
2019-01-13T12:11:47.672Z,17.23
2019-01-13T12:14:15.158Z,15.27
2019-01-13T12:16:42.917Z,17.03
2019-01-13T12:19:10.592Z,15.67
2019-01-13T12:21:38.182Z,19.50
2019-01-13T12:24:05.948Z,15.10
2019-01-13T12:26:33.524Z,17.70
2019-01-13T12:29:01.104Z,14.63
2019-01-13T12:31:28.561Z,20.27
2019-01-13T12:33:56.111Z,18.47
2019-01-13T12:36:23.630Z,19.30
2019-01-13T12:38:51.057Z,19.00
2019-01-13T12:41:18.587Z,23.27
2019-01-13T12:43:46.255Z,21.47
2019-01-13T12:46:13.853Z,41.63
2019-01-13T12:48:41.249Z,23.57
2019-01-13T12:51:08.713Z,28.10
2019-01-13T12:53:36.267Z,27.40
2019-01-13T12:56:03.835Z,26.63
2019-01-13T12:58:31.386Z,23.63
2019-01-13T13:00:58.881Z,35.17
2019-01-13T13:03:31.618Z,32.50
2019-01-13T13:05:55.971Z,30.40
2019-01-13T13:08:23.852Z,29.30
2019-01-13T13:10:54.536Z,32.37
2019-01-13T13:13:22.202Z,32.80
2019-01-13T13:15:50.071Z,28.93
2019-01-13T13:18:17.541Z,30.27
2019-01-13T13:20:45.251Z,30.93
2019-01-13T13:23:12.836Z,28.73
2019-01-13T13:25:40.439Z,29.60
2019-01-13T13:28:08.601Z,32.67
2019-01-13T13:30:36.222Z,26.03
2019-01-13T13:33:03.890Z,32.60
2019-01-13T13:35:31.521Z,28.33
2019-01-13T13:37:59.192Z,28.27
2019-01-13T13:40:27.393Z,31.03
2019-01-13T13:42:55.373Z,28.70
2019-01-13T13:45:23.011Z,30.97
2019-01-13T13:47:51.142Z,29.03
2019-01-13T13:50:21.553Z,33.40
2019-01-13T13:52:49.534Z,30.90
2019-01-13T13:55:17.211Z,32.97
2019-01-13T13:57:45.076Z,32.00
2019-01-13T14:00:19.118Z,31.97
2019-01-13T14:02:46.714Z,29.20
2019-01-13T14:05:14.362Z,28.53
2019-01-13T14:07:42.014Z,45.53
2019-01-13T14:10:14.523Z,45.00
2019-01-13T14:12:42.175Z,43.23
2019-01-13T14:15:09.913Z,35.20
2019-01-13T14:17:37.517Z,39.30
2019-01-13T14:20:08.277Z,39.70
2019-01-13T14:22:35.966Z,43.10
2019-01-13T14:25:04.519Z,50.90
2019-01-13T14:27:32.304Z,55.50
2019-01-13T14:29:59.957Z,63.27
2019-01-13T14:32:27.666Z,61.87
2019-01-13T14:34:55.386Z,72.33
2019-01-13T14:37:23.050Z,85.50
2019-01-13T14:39:50.989Z,85.73
2019-01-13T14:42:18.741Z,67.63
2019-01-13T14:44:46.238Z,70.03
2019-01-13T14:47:13.839Z,71.03
2019-01-13T14:49:41.825Z,79.70
2019-01-13T14:52:09.580Z,78.10
2019-01-13T14:54:37.167Z,87.10
2019-01-13T14:57:04.815Z,78.30
2019-01-13T14:59:32.364Z,85.43
2019-01-13T15:01:59.833Z,86.57
2019-01-13T15:04:27.268Z,79.30
2019-01-13T15:06:55.108Z,76.83
2019-01-13T15:09:22.813Z,68.37
2019-01-13T15:11:50.317Z,71.83
2019-01-13T15:14:18.060Z,75.20
2019-01-13T15:16:45.540Z,70.90
2019-01-13T15:19:13.203Z,78.63
2019-01-13T15:21:40.990Z,76.63
2019-01-13T15:24:08.471Z,70.17
2019-01-13T15:26:35.911Z,81.53
2019-01-13T15:29:03.699Z,68.73
2019-01-13T15:31:31.283Z,76.27
2019-01-13T15:33:58.676Z,71.13
2019-01-13T15:36:26.231Z,53.63
2019-01-13T15:38:53.859Z,53.50
2019-01-13T15:41:21.503Z,54.43
2019-01-13T15:43:49.215Z,75.63
2019-01-13T15:46:16.802Z,53.17
2019-01-13T15:48:44.588Z,51.57
2019-01-13T15:51:12.503Z,55.60
2019-01-13T15:53:40.332Z,46.33
2019-01-13T15:56:08.263Z,45.63
2019-01-13T15:58:35.951Z,56.33
2019-01-13T16:01:03.636Z,52.53
2019-01-13T16:03:31.064Z,51.70
2019-01-13T16:05:59.367Z,46.67
2019-01-13T16:08:27.417Z,51.20
2019-01-13T16:10:55.030Z,54.27
2019-01-13T16:13:22.613Z,52.23
2019-01-13T16:15:50.261Z,55.10
2019-01-13T16:18:17.789Z,48.53
2019-01-13T16:20:45.644Z,46.30
2019-01-13T16:23:14.069Z,57.13
2019-01-13T16:25:41.576Z,54.43
2019-01-13T16:28:09.074Z,59.80
2019-01-13T16:30:36.832Z,57.40
2019-01-13T16:33:05.799Z,65.67
2019-01-13T16:35:33.399Z,59.43
2019-01-13T16:38:01.243Z,54.03
2019-01-13T16:40:29.072Z,56.83
2019-01-13T16:42:56.678Z,56.27
2019-01-13T16:45:26.741Z,54.77
2019-01-13T16:47:54.659Z,58.70
2019-01-13T16:50:24.666Z,56.67
2019-01-13T16:52:54.261Z,49.87
2019-01-13T16:55:23.210Z,49.13
2019-01-13T16:57:50.815Z,55.17
2019-01-13T17:00:20.650Z,50.37
2019-01-13T17:02:48.380Z,44.73
2019-01-13T17:05:18.063Z,50.53
2019-01-13T17:07:45.908Z,51.07
2019-01-13T17:10:15.914Z,56.37
2019-01-13T17:12:43.678Z,46.50
2019-01-13T17:15:13.152Z,44.87
2019-01-13T17:17:40.595Z,45.80
2019-01-13T17:20:12.491Z,53.17
2019-01-13T17:22:40.833Z,51.30
2019-01-13T17:25:09.422Z,50.90
2019-01-13T17:27:36.938Z,51.27
2019-01-13T17:30:07.117Z,46.97
2019-01-13T17:32:34.964Z,50.77
2019-01-13T17:35:04.961Z,49.43
2019-01-13T17:37:32.518Z,63.97
2019-01-13T17:40:01.277Z,58.47
2019-01-13T17:42:29.113Z,55.23
2019-01-13T17:44:57.100Z,75.27
2019-01-13T17:47:24.601Z,100.10
2019-01-13T17:49:52.184Z,89.23
2019-01-13T17:52:19.889Z,130.10
2019-01-13T17:54:48.332Z,122.93
2019-01-13T17:57:16.636Z,121.50
2019-01-13T17:59:44.472Z,108.33
2019-01-13T18:02:12.431Z,116.77
2019-01-13T18:04:43.282Z,129.00
2019-01-13T18:07:09.532Z,125.30
2019-01-13T18:09:37.291Z,148.63
2019-01-13T18:12:05.143Z,145.20
2019-01-13T18:14:32.916Z,133.70
2019-01-13T18:17:06.396Z,111.20
2019-01-13T18:19:30.036Z,119.77
2019-01-13T18:21:57.511Z,133.90
2019-01-13T18:24:25.391Z,105.57
2019-01-13T18:26:53.280Z,124.43
2019-01-13T18:29:20.808Z,143.70
2019-01-13T18:31:48.673Z,119.63
2019-01-13T18:34:16.266Z,121.20
2019-01-13T18:36:44.027Z,145.03
2019-01-13T18:39:11.590Z,151.13
2019-01-13T18:41:39.195Z,143.03
2019-01-13T18:44:07.930Z,145.57
2019-01-13T18:46:35.756Z,132.97
2019-01-13T18:49:03.714Z,139.60
2019-01-13T18:51:31.456Z,120.73
2019-01-13T18:53:59.006Z,115.43
2019-01-13T18:56:27.246Z,109.03
2019-01-13T18:58:54.775Z,93.87
2019-01-13T19:01:22.413Z,99.07
2019-01-13T19:03:49.989Z,96.13
2019-01-13T19:06:17.746Z,85.10
2019-01-13T19:08:45.256Z,76.97
2019-01-13T19:11:22.363Z,79.33
2019-01-13T19:14:40.935Z,75.03
2019-01-13T19:17:11.057Z,83.03
2019-01-13T19:19:50.014Z,86.90
2019-01-13T19:22:19.132Z,84.47
2019-01-13T19:24:49.325Z,70.67
2019-01-13T19:27:17.177Z,81.80
2019-01-13T19:29:44.850Z,89.27
2019-01-13T19:32:12.910Z,84.37
2019-01-13T19:34:40.574Z,81.60
2019-01-13T19:37:08.391Z,79.93
2019-01-13T19:39:36.161Z,81.50
2019-01-13T19:42:03.796Z,80.53
2019-01-13T19:44:31.341Z,76.27
2019-01-13T19:46:58.830Z,68.50
2019-01-13T19:49:26.456Z,79.07
2019-01-13T19:51:54.047Z,91.70
2019-01-13T19:54:24.378Z,100.03
2019-01-13T19:56:51.889Z,102.37
2019-01-13T19:59:20.799Z,120.07
2019-01-13T20:01:48.718Z,114.90
2019-01-13T20:04:16.449Z,103.40
2019-01-13T20:06:44.211Z,100.13
2019-01-13T20:09:11.798Z,114.60
2019-01-13T20:11:41.238Z,106.10
2019-01-13T20:14:08.959Z,116.37
2019-01-13T20:16:36.395Z,123.57
2019-01-13T20:19:04.161Z,132.80
2019-01-13T20:21:31.668Z,140.33
2019-01-13T20:23:59.259Z,141.13
2019-01-13T20:26:28.294Z,161.87
2019-01-13T20:28:56.109Z,161.30
2019-01-13T20:31:23.548Z,171.50
2019-01-13T20:33:51.495Z,158.97
2019-01-13T20:36:19.093Z,152.00
2019-01-13T20:38:46.805Z,145.07
2019-01-13T20:41:14.441Z,86.43
2019-01-13T20:43:42.041Z,97.37
2019-01-13T20:46:09.491Z,88.47
2019-01-13T20:48:37.066Z,95.20
2019-01-13T20:51:04.913Z,77.33
2019-01-13T20:53:32.574Z,78.60
2019-01-13T20:56:00.317Z,69.73
2019-01-13T20:58:27.900Z,103.97
2019-01-13T21:00:55.666Z,66.10
2019-01-13T21:03:23.453Z,50.97
2019-01-13T21:05:51.257Z,111.83
2019-01-13T21:08:19.430Z,117.87
2019-01-13T21:10:47.021Z,121.77
2019-01-13T21:13:14.756Z,124.20
2019-01-13T21:15:42.333Z,121.27
2019-01-13T21:18:09.957Z,108.97
2019-01-13T21:20:37.546Z,114.33
2019-01-13T21:23:05.166Z,119.20
2019-01-13T21:25:33.740Z,115.67
2019-01-13T21:28:02.354Z,102.70
2019-01-13T21:30:31.125Z,114.33
2019-01-13T21:32:58.993Z,114.43
2019-01-13T21:35:33.526Z,118.27
2019-01-13T21:37:56.520Z,102.53
2019-01-13T21:40:25.109Z,108.57
2019-01-13T21:42:52.884Z,108.67
2019-01-13T21:45:21.017Z,93.83
2019-01-13T21:47:48.702Z,99.27
2019-01-13T21:50:21.474Z,96.47
2019-01-13T21:52:49.299Z,87.20
2019-01-13T21:55:17.493Z,114.47
2019-01-13T21:57:45.572Z,101.57
2019-01-13T22:00:19.270Z,122.43
2019-01-13T22:02:47.133Z,107.33
2019-01-13T22:05:14.844Z,117.43
2019-01-13T22:07:42.801Z,110.73
2019-01-13T22:10:13.653Z,121.03
2019-01-13T22:12:41.421Z,110.23
2019-01-13T22:15:10.879Z,117.33
2019-01-13T22:17:38.812Z,107.53
2019-01-13T22:20:08.599Z,94.17
2019-01-13T22:22:36.157Z,103.90
2019-01-13T22:25:04.844Z,99.53
2019-01-13T22:27:32.332Z,90.10
2019-01-13T22:29:59.831Z,94.80
2019-01-13T22:32:27.267Z,90.60
2019-01-13T22:34:54.735Z,96.70
2019-01-13T22:37:22.231Z,92.53
2019-01-13T22:39:49.685Z,117.77
2019-01-13T22:42:17.241Z,91.30
2019-01-13T22:44:44.704Z,92.20
2019-01-13T22:47:12.215Z,101.30
2019-01-13T22:49:39.705Z,87.10
2019-01-13T22:52:07.284Z,87.23
2019-01-13T22:54:34.802Z,85.03
2019-01-13T22:57:02.346Z,72.13
2019-01-13T22:59:29.962Z,87.13
2019-01-13T23:01:57.529Z,80.03
2019-01-13T23:04:25.195Z,80.10
2019-01-13T23:06:52.767Z,82.50
2019-01-13T23:09:20.435Z,75.47
2019-01-13T23:11:47.975Z,88.03
2019-01-13T23:14:15.602Z,72.67
2019-01-13T23:16:43.406Z,71.57
2019-01-13T23:19:10.972Z,91.10
2019-01-13T23:21:38.570Z,64.50
2019-01-13T23:24:06.230Z,76.90
2019-01-13T23:26:33.655Z,64.63
2019-01-13T23:29:01.205Z,78.23
2019-01-13T23:31:28.694Z,64.57
2019-01-13T23:33:56.084Z,56.57
2019-01-13T23:36:23.661Z,68.87
2019-01-13T23:38:51.145Z,90.63
2019-01-13T23:41:18.769Z,74.93
2019-01-13T23:43:46.418Z,63.33
2019-01-13T23:46:14.119Z,56.37
2019-01-13T23:48:41.674Z,62.20
2019-01-13T23:51:09.540Z,61.50
2019-01-13T23:53:37.044Z,57.47
2019-01-13T23:56:04.623Z,46.90
2019-01-13T23:58:32.130Z,59.83
